Time;durP1;ratioP1;P1;durP2;ratioP2;P2;SDS_P1;SDS_P2;PMS_P1;PMS_P2;Temp;Humidity;BMP_temperature;BMP_pressure;BME280_temperature;BME280_humidity;BME280_pressure;Samples;Min_cycle;Max_cycle;Signal;HPM_P1;HPM_P2
2023/08/29 00:01:51;;;;;;;2.08;1.10;;;17.00;99.90;;;;;;4995808;28;20026;-83
2023/08/29 00:04:17;;;;;;;2.00;0.65;;;17.20;99.90;;;;;;4994208;28;20065;-84
2023/08/29 00:06:42;;;;;;;2.33;0.80;;;17.20;99.90;;;;;;4990848;28;20073;-83
2023/08/29 00:09:08;;;;;;;3.83;0.88;;;17.10;99.90;;;;;;4991581;28;20080;-83
2023/08/29 00:11:34;;;;;;;2.42;0.70;;;17.10;99.90;;;;;;4994273;28;20034;-84
2023/08/29 00:14:00;;;;;;;1.17;0.50;;;17.00;99.90;;;;;;4992378;28;20052;-83
2023/08/29 00:16:25;;;;;;;1.55;0.60;;;16.90;99.90;;;;;;4994025;28;20106;-83
2023/08/29 00:18:51;;;;;;;4.18;0.75;;;16.70;99.90;;;;;;4991940;28;20088;-83
2023/08/29 00:21:17;;;;;;;1.58;0.70;;;16.80;99.90;;;;;;4996571;28;20053;-83
2023/08/29 00:23:42;;;;;;;1.75;0.60;;;16.90;99.90;;;;;;4998470;28;20069;-83
2023/08/29 00:26:08;;;;;;;2.85;0.75;;;16.90;99.90;;;;;;4996215;28;20031;-83
2023/08/29 00:28:34;;;;;;;1.15;0.63;;;16.70;99.90;;;;;;4994121;28;20050;-83
2023/08/29 00:30:59;;;;;;;1.92;0.65;;;16.90;99.90;;;;;;5002030;28;20101;-83
2023/08/29 00:33:25;;;;;;;1.85;0.70;;;16.90;99.90;;;;;;4997500;28;20041;-84
2023/08/29 00:35:50;;;;;;;4.05;0.82;;;16.90;99.90;;;;;;5004443;28;20069;-83
2023/08/29 00:38:17;;;;;;;2.38;0.60;;;16.90;99.90;;;;;;5000081;28;20052;-84
2023/08/29 00:40:42;;;;;;;3.72;1.27;;;16.90;99.90;;;;;;4996091;28;20045;-84
2023/08/29 00:43:08;;;;;;;3.22;0.40;;;16.90;99.90;;;;;;5000771;28;20034;-84
2023/08/29 00:45:37;;;;;;;1.98;0.70;;;16.50;99.90;;;;;;5002239;28;20532;-84
2023/08/29 00:48:04;;;;;;;2.30;0.93;;;16.70;99.90;;;;;;4982021;28;20037;-84
2023/08/29 00:50:30;;;;;;;2.03;0.47;;;16.60;99.90;;;;;;4996373;28;20109;-84
2023/08/29 00:53:03;;;;;;;3.65;0.50;;;16.60;99.90;;;;;;4995993;28;20027;-84
2023/08/29 00:55:28;;;;;;;2.35;0.60;;;16.40;99.90;;;;;;5003728;28;20034;-83
2023/08/29 00:57:59;;;;;;;1.10;0.43;;;16.50;99.90;;;;;;4994055;28;20026;-84
2023/08/29 01:00:26;;;;;;;2.90;0.70;;;16.70;99.90;;;;;;4995566;28;20393;-84
2023/08/29 01:02:53;;;;;;;2.05;0.45;;;16.60;99.90;;;;;;4996862;28;20177;-83
2023/08/29 01:05:20;;;;;;;4.13;0.70;;;16.50;99.90;;;;;;4993792;28;20109;-83
2023/08/29 01:07:53;;;;;;;1.80;0.70;;;16.70;99.90;;;;;;4977785;28;20105;-84
2023/08/29 01:10:28;;;;;;;3.15;0.50;;;16.70;99.90;;;;;;4996294;28;20049;-83
2023/08/29 01:13:12;;;;;;;1.73;0.63;;;16.50;99.90;;;;;;5001690;28;20104;-83
2023/08/29 01:15:42;;;;;;;1.20;0.40;;;16.40;99.90;;;;;;4996492;28;20556;-83
2023/08/29 01:18:11;;;;;;;1.75;0.50;;;16.40;99.90;;;;;;4994910;28;20072;-83
2023/08/29 01:20:38;;;;;;;1.27;0.52;;;16.40;99.90;;;;;;4993624;28;20559;-84
2023/08/29 01:23:13;;;;;;;1.55;0.80;;;16.30;99.90;;;;;;4995145;28;20403;-83
2023/08/29 01:26:20;;;;;;;0.65;0.30;;;16.30;99.90;;;;;;5001993;28;20518;-82
2023/08/29 01:28:47;;;;;;;1.25;0.52;;;16.30;99.90;;;;;;4994401;28;20369;-83
2023/08/29 01:31:13;;;;;;;2.13;0.63;;;16.30;99.90;;;;;;4997303;28;20030;-83
2023/08/29 01:33:39;;;;;;;3.33;0.60;;;16.30;99.90;;;;;;4992728;28;20038;-83
2023/08/29 01:36:06;;;;;;;1.73;0.60;;;16.20;99.90;;;;;;5000807;28;20022;-83
2023/08/29 01:38:31;;;;;;;1.63;0.43;;;16.20;99.90;;;;;;4999437;28;20109;-83
2023/08/29 01:40:57;;;;;;;2.45;0.40;;;16.10;99.90;;;;;;4996838;28;20114;-83
2023/08/29 01:43:23;;;;;;;0.70;0.22;;;16.20;99.90;;;;;;4988761;28;20041;-83
2023/08/29 01:45:48;;;;;;;0.63;0.30;;;16.40;99.90;;;;;;4998824;28;20432;-83
2023/08/29 01:48:15;;;;;;;0.68;0.45;;;16.40;99.90;;;;;;4996712;28;20034;-83
2023/08/29 01:50:45;;;;;;;1.63;0.68;;;16.40;99.90;;;;;;4995079;28;20034;-83
2023/08/29 01:53:11;;;;;;;4.15;0.38;;;16.30;99.90;;;;;;4999128;28;23778;-84
2023/08/29 01:55:38;;;;;;;1.20;0.30;;;16.30;99.90;;;;;;4998302;28;20385;-83
2023/08/29 01:58:05;;;;;;;1.27;0.38;;;16.30;99.90;;;;;;5001334;28;20022;-83
2023/08/29 02:00:32;;;;;;;2.10;0.60;;;16.30;99.90;;;;;;4998365;28;20083;-83
2023/08/29 02:02:58;;;;;;;3.40;0.52;;;16.20;99.90;;;;;;4998699;28;20038;-83
2023/08/29 02:05:24;;;;;;;1.55;0.50;;;16.20;99.90;;;;;;4998895;28;20044;-83
2023/08/29 02:07:50;;;;;;;0.55;0.30;;;16.00;99.90;;;;;;4997623;28;20045;-83
2023/08/29 02:10:16;;;;;;;0.68;0.22;;;16.20;99.90;;;;;;4997029;28;20475;-83
2023/08/29 02:12:41;;;;;;;1.35;0.50;;;16.10;99.90;;;;;;4991676;28;20022;-83
2023/08/29 02:15:09;;;;;;;0.40;0.20;;;16.00;99.90;;;;;;4992850;28;20034;-83
2023/08/29 02:17:36;;;;;;;1.23;0.35;;;16.20;99.90;;;;;;4996224;28;20033;-83
2023/08/29 02:20:04;;;;;;;1.55;0.40;;;16.20;99.90;;;;;;4992726;28;20492;-83
2023/08/29 02:22:30;;;;;;;2.10;0.43;;;16.10;99.90;;;;;;4988978;28;20039;-83
2023/08/29 02:24:56;;;;;;;0.73;0.30;;;16.10;99.90;;;;;;4992876;28;20041;-83
2023/08/29 02:27:22;;;;;;;1.65;0.68;;;16.30;99.90;;;;;;4988707;28;20677;-83
2023/08/29 02:29:48;;;;;;;1.52;0.40;;;16.20;99.90;;;;;;4995749;28;20048;-84
2023/08/29 02:32:15;;;;;;;2.72;0.40;;;16.10;99.90;;;;;;4994080;28;20029;-83
2023/08/29 02:34:40;;;;;;;5.13;1.05;;;16.00;99.90;;;;;;4989395;28;20500;-84
2023/08/29 02:37:06;;;;;;;1.65;0.50;;;16.00;99.90;;;;;;4997572;28;20050;-85
2023/08/29 02:39:32;;;;;;;1.55;0.40;;;15.90;99.90;;;;;;4988776;28;20045;-83
2023/08/29 02:41:57;;;;;;;1.63;0.38;;;15.80;99.90;;;;;;4990899;28;20037;-84
2023/08/29 02:44:23;;;;;;;0.50;0.20;;;15.80;99.90;;;;;;4990789;28;20073;-83
2023/08/29 02:46:49;;;;;;;2.47;0.30;;;15.60;99.90;;;;;;4996761;28;20028;-83
2023/08/29 02:49:14;;;;;;;2.38;0.30;;;15.70;99.90;;;;;;4988275;28;20120;-84
2023/08/29 02:51:40;;;;;;;1.27;0.25;;;15.70;99.90;;;;;;4987564;28;20046;-83
2023/08/29 02:54:06;;;;;;;1.02;0.30;;;15.80;99.90;;;;;;4991568;28;20025;-83
2023/08/29 02:56:31;;;;;;;0.57;0.32;;;15.80;99.90;;;;;;4992587;28;20031;-84
2023/08/29 02:58:57;;;;;;;0.60;0.28;;;15.70;99.90;;;;;;4995768;28;20160;-83
2023/08/29 03:01:23;;;;;;;2.95;0.32;;;15.70;99.90;;;;;;4990392;28;20033;-82
2023/08/29 03:03:49;;;;;;;0.32;0.20;;;15.70;99.90;;;;;;4992831;28;20038;-82
2023/08/29 03:06:15;;;;;;;0.60;0.20;;;15.60;99.90;;;;;;4985747;28;20022;-82
2023/08/29 03:08:41;;;;;;;1.05;0.30;;;15.60;99.90;;;;;;4987228;28;20033;-81
2023/08/29 03:11:06;;;;;;;1.42;0.50;;;15.50;99.90;;;;;;4995282;28;20034;-81
2023/08/29 03:13:32;;;;;;;1.80;0.30;;;15.60;99.90;;;;;;4995685;28;20038;-82
2023/08/29 03:16:01;;;;;;;0.85;0.40;;;15.60;99.90;;;;;;4994614;28;20034;-82
2023/08/29 03:18:27;;;;;;;0.20;0.20;;;15.60;99.90;;;;;;4992627;28;20582;-82
2023/08/29 03:20:53;;;;;;;0.73;0.30;;;15.60;99.90;;;;;;4990068;28;20117;-82
2023/08/29 03:23:19;;;;;;;0.47;0.10;;;15.60;99.90;;;;;;4989482;28;20030;-82
2023/08/29 03:25:45;;;;;;;0.82;0.30;;;15.50;99.90;;;;;;4999854;28;20714;-82
2023/08/29 03:28:10;;;;;;;0.45;0.13;;;15.40;99.90;;;;;;4995752;28;20143;-81
2023/08/29 03:30:36;;;;;;;3.95;0.47;;;15.40;99.90;;;;;;4988219;28;20038;-82
2023/08/29 03:33:02;;;;;;;0.30;0.10;;;15.40;99.90;;;;;;4993482;28;20030;-81
2023/08/29 03:35:28;;;;;;;3.38;0.50;;;15.50;99.90;;;;;;4995488;28;20042;-81
2023/08/29 03:37:53;;;;;;;1.02;0.45;;;15.50;99.90;;;;;;4995165;28;20026;-82
2023/08/29 03:40:19;;;;;;;1.27;0.32;;;15.50;99.90;;;;;;4995875;28;20061;-81
2023/08/29 03:42:45;;;;;;;0.57;0.25;;;15.50;99.90;;;;;;4998797;28;20062;-82
2023/08/29 03:45:10;;;;;;;2.05;0.25;;;15.50;99.90;;;;;;4996561;28;20514;-81
2023/08/29 03:47:37;;;;;;;2.97;0.30;;;15.20;99.90;;;;;;4992499;28;20113;-82
2023/08/29 03:50:03;;;;;;;0.30;0.17;;;15.10;99.90;;;;;;4979421;28;20088;-81
2023/08/29 03:52:29;;;;;;;0.25;0.15;;;15.20;99.90;;;;;;4990693;28;20133;-81
2023/08/29 03:54:56;;;;;;;1.73;0.28;;;15.10;99.90;;;;;;4986000;28;20050;-81
2023/08/29 03:57:28;;;;;;;0.20;0.20;;;15.00;99.90;;;;;;4992419;28;20041;-81
2023/08/29 03:59:54;;;;;;;1.70;0.30;;;15.00;99.90;;;;;;4995544;28;20046;-81
2023/08/29 04:02:20;;;;;;;1.75;0.38;;;15.10;99.90;;;;;;4989229;28;20894;-81
2023/08/29 04:04:50;;;;;;;0.17;0.10;;;15.10;99.90;;;;;;4988742;28;20088;-82
2023/08/29 04:07:16;;;;;;;1.23;0.40;;;15.20;99.90;;;;;;4993919;28;20022;-82
2023/08/29 04:09:43;;;;;;;2.10;0.82;;;15.30;99.90;;;;;;4993140;28;20085;-82
2023/08/29 04:12:10;;;;;;;0.47;0.10;;;15.20;99.90;;;;;;4993598;28;20061;-81
2023/08/29 04:14:36;;;;;;;1.40;0.30;;;15.20;99.90;;;;;;4992599;28;20355;-81
2023/08/29 04:17:02;;;;;;;0.85;0.17;;;15.10;99.90;;;;;;4993820;28;20034;-81
2023/08/29 04:19:27;;;;;;;0.22;0.20;;;15.20;99.90;;;;;;4987499;28;20499;-81
2023/08/29 04:21:53;;;;;;;0.85;0.30;;;15.20;99.90;;;;;;4988796;28;20034;-81
2023/08/29 04:24:18;;;;;;;0.50;0.20;;;15.20;99.90;;;;;;4997421;28;20380;-81
2023/08/29 04:26:44;;;;;;;0.35;0.10;;;15.40;99.90;;;;;;4990511;28;20372;-82
2023/08/29 04:29:10;;;;;;;0.47;0.10;;;15.20;99.90;;;;;;4994375;28;20030;-83
2023/08/29 04:31:35;;;;;;;0.32;0.10;;;15.30;99.90;;;;;;4992282;28;20037;-82
2023/08/29 04:34:01;;;;;;;1.08;0.30;;;15.30;99.90;;;;;;4990509;28;20057;-82
2023/08/29 04:36:27;;;;;;;0.50;0.20;;;15.40;99.90;;;;;;4999192;28;20037;-82
2023/08/29 04:38:53;;;;;;;0.40;0.20;;;15.40;99.90;;;;;;4990137;28;20034;-82
2023/08/29 04:41:19;;;;;;;1.23;0.10;;;15.50;99.90;;;;;;4995054;28;20071;-83
2023/08/29 04:43:45;;;;;;;0.68;0.10;;;15.50;99.90;;;;;;4993288;28;20041;-82
2023/08/29 04:46:10;;;;;;;0.80;0.20;;;15.50;99.90;;;;;;4992144;28;20022;-82
2023/08/29 04:48:37;;;;;;;0.30;0.10;;;15.50;99.90;;;;;;4987394;28;20967;-82
2023/08/29 04:51:06;;;;;;;0.38;0.20;;;15.60;99.90;;;;;;4994872;28;20034;-81
2023/08/29 04:53:32;;;;;;;1.55;0.35;;;15.70;99.90;;;;;;4986927;28;20029;-83
2023/08/29 04:56:02;;;;;;;1.02;0.30;;;15.50;99.90;;;;;;4992647;28;20022;-83
2023/08/29 04:58:29;;;;;;;1.02;0.10;;;15.50;99.90;;;;;;4988512;28;20019;-82
2023/08/29 05:00:56;;;;;;;0.47;0.17;;;15.40;99.90;;;;;;4989537;28;20046;-82
2023/08/29 05:03:21;;;;;;;1.55;0.28;;;15.10;99.90;;;;;;4987193;28;20041;-82
2023/08/29 05:05:47;;;;;;;0.55;0.20;;;15.00;99.90;;;;;;4985205;28;20368;-82
2023/08/29 05:08:13;;;;;;;0.38;0.10;;;14.90;99.90;;;;;;4991029;28;20076;-82
2023/08/29 05:10:40;;;;;;;2.35;0.40;;;15.00;99.90;;;;;;4997318;28;20105;-82
2023/08/29 05:13:06;;;;;;;1.35;0.30;;;15.00;99.90;;;;;;4997374;28;20022;-82
2023/08/29 05:15:32;;;;;;;0.45;0.28;;;15.00;99.90;;;;;;4983417;28;20030;-82
2023/08/29 05:17:58;;;;;;;0.55;0.20;;;15.10;99.90;;;;;;4993211;28;20037;-83
2023/08/29 05:20:24;;;;;;;1.02;0.20;;;15.10;99.90;;;;;;4993145;28;20101;-80
2023/08/29 05:22:50;;;;;;;1.13;0.28;;;15.00;99.90;;;;;;4992099;28;20125;-80
2023/08/29 05:25:16;;;;;;;2.35;0.30;;;14.90;99.90;;;;;;4991483;28;20634;-81
2023/08/29 05:27:41;;;;;;;1.00;0.13;;;14.70;99.90;;;;;;4997171;28;20030;-79
2023/08/29 05:30:08;;;;;;;2.08;0.30;;;14.80;99.90;;;;;;4996877;28;20037;-80
2023/08/29 05:32:36;;;;;;;2.15;0.40;;;14.90;99.90;;;;;;5001591;28;20042;-82
2023/08/29 05:35:02;;;;;;;1.52;0.20;;;14.80;99.90;;;;;;4995862;28;20046;-80
2023/08/29 05:37:28;;;;;;;1.90;0.20;;;14.90;99.90;;;;;;4986946;28;20053;-79
2023/08/29 05:39:54;;;;;;;1.30;0.13;;;15.00;99.90;;;;;;4996541;28;20066;-79
2023/08/29 05:42:22;;;;;;;0.63;0.10;;;15.10;99.90;;;;;;4993732;28;20546;-80
2023/08/29 05:44:48;;;;;;;1.08;0.25;;;15.10;99.90;;;;;;4995196;28;20038;-78
2023/08/29 05:47:13;;;;;;;2.15;0.30;;;15.20;99.90;;;;;;4990097;28;20685;-83
2023/08/29 05:49:39;;;;;;;0.47;0.15;;;15.20;99.90;;;;;;4987790;28;20056;-79
2023/08/29 05:52:05;;;;;;;0.52;0.30;;;15.20;99.90;;;;;;4992742;28;20141;-80
2023/08/29 05:54:31;;;;;;;2.30;0.20;;;15.20;99.90;;;;;;4989606;28;20038;-79
2023/08/29 05:56:57;;;;;;;0.88;0.32;;;15.20;99.90;;;;;;4990706;28;20711;-79
2023/08/29 05:59:22;;;;;;;0.70;0.10;;;15.00;99.90;;;;;;4991157;28;20037;-79
2023/08/29 06:01:48;;;;;;;0.57;0.30;;;15.00;99.90;;;;;;4990985;28;20106;-79
2023/08/29 06:04:14;;;;;;;2.78;0.35;;;15.00;99.90;;;;;;4990432;28;20073;-79
2023/08/29 06:06:40;;;;;;;0.45;0.10;;;14.90;99.90;;;;;;4973131;28;20507;-79
2023/08/29 06:09:08;;;;;;;0.32;0.08;;;14.90;99.90;;;;;;4991524;28;20068;-80
2023/08/29 06:11:34;;;;;;;4.75;0.52;;;15.00;99.90;;;;;;4991847;28;20502;-79
2023/08/29 06:14:01;;;;;;;5.47;1.13;;;15.00;99.90;;;;;;4990231;28;20030;-79
2023/08/29 06:16:27;;;;;;;1.13;0.15;;;15.10;99.90;;;;;;4989876;28;20030;-81
2023/08/29 06:18:52;;;;;;;2.28;0.30;;;15.10;99.90;;;;;;4994837;28;20229;-81
2023/08/29 06:21:19;;;;;;;0.20;0.15;;;15.00;99.90;;;;;;4975899;28;20142;-79
2023/08/29 06:23:45;;;;;;;2.50;0.68;;;15.00;99.90;;;;;;4985476;28;20046;-78
2023/08/29 06:26:11;;;;;;;3.35;0.50;;;15.00;99.90;;;;;;4994795;28;20106;-80
2023/08/29 06:28:37;;;;;;;2.08;0.52;;;14.80;99.90;;;;;;4988576;28;20034;-79
2023/08/29 06:31:08;;;;;;;2.65;0.70;;;14.90;99.90;;;;;;4990300;28;20034;-79
2023/08/29 06:33:37;;;;;;;1.17;0.30;;;14.90;99.90;;;;;;4985790;28;20030;-79
2023/08/29 06:36:03;;;;;;;0.90;0.20;;;15.00;99.90;;;;;;4987419;28;20031;-79
2023/08/29 06:38:30;;;;;;;1.02;0.28;;;15.00;99.90;;;;;;4990976;28;20027;-79
2023/08/29 06:40:57;;;;;;;1.08;0.30;;;15.00;99.90;;;;;;4992762;28;20062;-79
2023/08/29 06:43:23;;;;;;;2.42;0.40;;;15.00;99.90;;;;;;4986698;28;20046;-80
2023/08/29 06:45:49;;;;;;;1.40;0.57;;;15.10;99.90;;;;;;4985715;28;20444;-79
2023/08/29 06:48:15;;;;;;;0.98;0.30;;;15.10;99.90;;;;;;4993142;28;20042;-80
2023/08/29 06:50:40;;;;;;;0.73;0.20;;;15.20;99.90;;;;;;4992185;28;20030;-79
2023/08/29 06:53:06;;;;;;;1.77;0.40;;;15.10;99.90;;;;;;4993091;28;20051;-79
2023/08/29 06:55:34;;;;;;;2.92;0.40;;;15.10;99.90;;;;;;4989922;28;20156;-79
2023/08/29 06:58:01;;;;;;;0.73;0.20;;;15.20;99.90;;;;;;4985857;28;20022;-79
2023/08/29 07:00:26;;;;;;;1.35;0.38;;;15.20;99.90;;;;;;4986745;28;20041;-79
2023/08/29 07:02:52;;;;;;;0.30;0.10;;;15.20;99.90;;;;;;4993065;28;20038;-80
2023/08/29 07:05:18;;;;;;;1.40;0.22;;;15.30;99.90;;;;;;4991651;28;20030;-79
2023/08/29 07:07:44;;;;;;;2.38;0.40;;;15.30;99.90;;;;;;4996164;28;20062;-79
2023/08/29 07:10:10;;;;;;;1.23;0.30;;;15.50;99.90;;;;;;4993663;28;20117;-79
2023/08/29 07:12:36;;;;;;;3.03;0.30;;;15.40;99.90;;;;;;4994569;28;20381;-80
2023/08/29 07:15:02;;;;;;;0.00;0.00;;;15.30;99.90;;;;;;5001361;28;20048;-79
2023/08/29 07:17:28;;;;;;;1.88;0.25;;;15.30;99.90;;;;;;5003367;28;20029;-79
2023/08/29 07:19:53;;;;;;;1.48;0.38;;;15.30;99.90;;;;;;5002887;28;20030;-78
2023/08/29 07:22:19;;;;;;;1.15;0.20;;;15.50;99.90;;;;;;5005932;28;20156;-83
2023/08/29 07:24:45;;;;;;;1.40;0.40;;;15.50;99.90;;;;;;4995619;28;20038;-81
2023/08/29 07:27:11;;;;;;;2.03;0.30;;;15.60;99.90;;;;;;5003024;28;20038;-81
2023/08/29 07:29:36;;;;;;;1.92;0.30;;;15.50;99.90;;;;;;5000499;28;20109;-80
2023/08/29 07:32:07;;;;;;;0.88;0.38;;;15.70;99.90;;;;;;4994725;28;20031;-80
2023/08/29 07:34:32;;;;;;;0.20;0.10;;;15.70;99.90;;;;;;5000750;28;20064;-80
2023/08/29 07:36:58;;;;;;;0.75;0.20;;;15.60;99.90;;;;;;5000197;28;20364;-79
2023/08/29 07:39:24;;;;;;;0.90;0.10;;;15.70;99.90;;;;;;4998780;28;20431;-78
2023/08/29 07:41:50;;;;;;;0.68;0.10;;;15.80;99.90;;;;;;4999966;28;20022;-84
2023/08/29 07:44:16;;;;;;;2.28;0.32;;;15.60;99.90;;;;;;4997857;28;20480;-81
2023/08/29 07:46:42;;;;;;;0.55;0.10;;;15.70;99.90;;;;;;4995635;28;20034;-81
2023/08/29 07:49:13;;;;;;;3.10;0.45;;;15.60;99.90;;;;;;4997021;28;20033;-81
2023/08/29 07:51:40;;;;;;;0.55;0.20;;;15.70;99.90;;;;;;4986633;28;20212;-81
2023/08/29 07:54:06;;;;;;;0.10;0.10;;;15.50;99.90;;;;;;4995693;28;20034;-81
2023/08/29 07:56:31;;;;;;;0.60;0.13;;;15.80;99.90;;;;;;4999362;28;20027;-83
2023/08/29 07:58:57;;;;;;;1.50;0.25;;;16.00;99.90;;;;;;5000513;28;20030;-82
2023/08/29 08:01:23;;;;;;;1.85;0.30;;;16.00;99.90;;;;;;5002860;28;20034;-85
2023/08/29 08:03:48;;;;;;;2.58;0.40;;;15.90;99.90;;;;;;5001145;28;20022;-82
2023/08/29 08:06:14;;;;;;;1.15;0.57;;;16.00;99.90;;;;;;5002463;28;20036;-81
2023/08/29 08:08:40;;;;;;;0.90;0.30;;;16.00;99.90;;;;;;5016289;28;20085;-85
2023/08/29 08:11:05;;;;;;;1.23;0.28;;;16.00;99.90;;;;;;4996833;28;20411;-83
2023/08/29 08:13:32;;;;;;;2.90;0.17;;;15.90;99.90;;;;;;4995970;28;20113;-82
2023/08/29 08:15:58;;;;;;;1.48;0.38;;;15.90;99.90;;;;;;4992243;28;20493;-81
2023/08/29 08:18:24;;;;;;;1.58;1.10;;;16.10;99.90;;;;;;4996363;28;20052;-82
2023/08/29 08:20:49;;;;;;;0.43;0.13;;;16.20;99.90;;;;;;4997167;28;20030;-82
2023/08/29 08:23:15;;;;;;;1.02;0.30;;;16.20;99.90;;;;;;4998195;28;20479;-86
2023/08/29 08:25:41;;;;;;;1.75;0.40;;;16.20;99.90;;;;;;4995282;28;20030;-87
2023/08/29 08:28:06;;;;;;;1.10;0.30;;;16.00;99.90;;;;;;4999399;28;20507;-88
2023/08/29 08:30:32;;;;;;;0.30;0.20;;;16.10;99.90;;;;;;4997856;28;20042;-88
2023/08/29 08:32:58;;;;;;;1.65;0.35;;;16.30;99.90;;;;;;5000390;28;20083;-83
2023/08/29 08:35:25;;;;;;;1.55;0.17;;;16.40;99.90;;;;;;4996931;28;20401;-81
2023/08/29 08:37:51;;;;;;;1.27;0.28;;;16.40;99.90;;;;;;4996333;28;20030;-82
2023/08/29 08:40:16;;;;;;;1.15;0.30;;;16.20;99.90;;;;;;4998785;28;20030;-85
2023/08/29 08:42:44;;;;;;;0.55;0.05;;;16.30;99.90;;;;;;4997501;28;20058;-83
2023/08/29 08:45:10;;;;;;;0.30;0.20;;;16.20;99.90;;;;;;4994074;28;20623;-82
2023/08/29 08:47:37;;;;;;;0.90;0.10;;;16.30;99.90;;;;;;4991016;28;20026;-82
2023/08/29 08:50:10;;;;;;;0.93;0.30;;;16.20;99.90;;;;;;4995115;28;20095;-82
2023/08/29 08:52:38;;;;;;;2.40;0.50;;;16.30;99.90;;;;;;4998844;28;20034;-82
2023/08/29 08:55:05;;;;;;;0.57;0.20;;;16.20;99.90;;;;;;4991827;28;20034;-84
2023/08/29 08:57:31;;;;;;;2.30;0.47;;;16.50;99.90;;;;;;4996826;28;20060;-82
2023/08/29 08:59:57;;;;;;;0.43;0.13;;;16.40;99.90;;;;;;4992852;28;20534;-81
2023/08/29 09:02:24;;;;;;;3.58;0.75;;;16.50;99.90;;;;;;4998890;28;20053;-82
2023/08/29 09:04:50;;;;;;;0.82;0.47;;;16.40;99.90;;;;;;4993934;28;20445;-82
2023/08/29 09:07:16;;;;;;;0.93;0.50;;;16.50;99.90;;;;;;4996619;28;20068;-81
2023/08/29 09:09:42;;;;;;;0.63;0.28;;;16.40;99.90;;;;;;4998765;28;20061;-88
2023/08/29 09:12:07;;;;;;;1.42;0.40;;;16.40;99.90;;;;;;5006540;28;20088;-83
2023/08/29 09:14:33;;;;;;;2.20;0.22;;;16.50;99.90;;;;;;4995372;28;20049;-82
2023/08/29 09:17:00;;;;;;;0.75;0.30;;;16.40;99.90;;;;;;4997703;28;20480;-79
2023/08/29 09:19:29;;;;;;;2.42;0.20;;;16.70;99.90;;;;;;4994390;28;20645;-79
2023/08/29 09:21:55;;;;;;;3.15;0.20;;;16.90;99.90;;;;;;4993123;28;20057;-78
2023/08/29 09:24:35;;;;;;;1.17;0.20;;;16.90;99.90;;;;;;4993817;28;20034;-79
2023/08/29 09:27:10;;;;;;;3.95;0.35;;;16.90;99.90;;;;;;4994489;28;20034;-78
2023/08/29 09:29:36;;;;;;;0.60;0.15;;;16.80;99.90;;;;;;4996447;28;20619;-78
2023/08/29 09:32:13;;;;;;;1.50;0.30;;;16.70;99.90;;;;;;4995517;28;20041;-79
2023/08/29 09:34:39;;;;;;;2.65;0.22;;;16.70;99.90;;;;;;4998976;28;20093;-79
2023/08/29 09:37:05;;;;;;;0.85;0.30;;;16.70;99.90;;;;;;4989791;28;20053;-79
2023/08/29 09:39:31;;;;;;;0.57;0.30;;;16.90;99.90;;;;;;4993517;28;20026;-79
2023/08/29 09:42:05;;;;;;;0.55;0.32;;;16.70;99.90;;;;;;4986121;28;20552;-79
2023/08/29 09:44:36;;;;;;;0.88;0.20;;;16.80;99.90;;;;;;4985251;28;20042;-79
2023/08/29 09:47:06;;;;;;;0.20;0.20;;;16.90;99.90;;;;;;4992614;28;20030;-79
2023/08/29 09:49:49;;;;;;;1.63;0.40;;;16.80;99.90;;;;;;4985519;28;20551;-79
2023/08/29 09:52:16;;;;;;;1.00;0.13;;;16.80;99.90;;;;;;4989430;28;20062;-79
2023/08/29 09:54:48;;;;;;;0.82;0.20;;;17.00;99.90;;;;;;4991406;28;20287;-78
2023/08/29 09:57:15;;;;;;;2.35;0.20;;;17.00;99.90;;;;;;4989874;28;20042;-78
2023/08/29 09:59:43;;;;;;;0.20;0.10;;;17.00;99.90;;;;;;4986118;28;20054;-78
2023/08/29 10:02:13;;;;;;;0.70;0.20;;;17.40;99.90;;;;;;4984557;28;20042;-80
2023/08/29 10:04:44;;;;;;;1.17;0.38;;;17.60;99.90;;;;;;4986577;28;20049;-78
2023/08/29 10:07:15;;;;;;;1.73;0.30;;;17.90;99.90;;;;;;4988520;28;20022;-78
2023/08/29 10:09:42;;;;;;;0.50;0.13;;;17.90;99.90;;;;;;4998599;28;20038;-81
2023/08/29 10:12:09;;;;;;;0.55;0.17;;;18.10;99.90;;;;;;5002803;28;20021;-81
2023/08/29 10:14:36;;;;;;;2.00;0.30;;;18.30;99.90;;;;;;4993842;28;20081;-81
2023/08/29 10:17:05;;;;;;;0.40;0.17;;;18.50;99.90;;;;;;4992653;28;20180;-79
2023/08/29 10:19:32;;;;;;;0.52;0.10;;;18.70;99.90;;;;;;4991362;28;20467;-81
2023/08/29 10:21:59;;;;;;;0.38;0.20;;;18.80;99.90;;;;;;4992923;28;20051;-81
2023/08/29 10:24:26;;;;;;;0.40;0.28;;;19.00;99.90;;;;;;4981258;28;20033;-79
2023/08/29 10:26:52;;;;;;;0.25;0.10;;;18.90;99.90;;;;;;4985854;28;20058;-81
2023/08/29 10:29:18;;;;;;;0.98;0.13;;;18.80;99.90;;;;;;4984291;28;20027;-79
2023/08/29 10:31:45;;;;;;;1.25;0.20;;;18.90;99.90;;;;;;4983726;28;20029;-79
2023/08/29 10:34:13;;;;;;;0.63;0.20;;;18.90;99.90;;;;;;4987012;28;20045;-81
2023/08/29 10:36:39;;;;;;;0.38;0.08;;;18.80;99.90;;;;;;4984690;28;20037;-81
2023/08/29 10:39:09;;;;;;;5.10;0.88;;;18.60;99.90;;;;;;4991106;28;20034;-82
2023/08/29 10:41:47;;;;;;;0.98;0.28;;;18.90;99.90;;;;;;4986334;28;20116;-82
2023/08/29 10:44:31;;;;;;;0.30;0.10;;;19.00;99.90;;;;;;4985167;28;20129;-81
2023/08/29 10:47:30;;;;;;;3.40;0.20;;;19.10;99.90;;;;;;4990101;28;20069;-81
2023/08/29 10:50:07;;;;;;;0.93;0.17;;;19.10;99.90;;;;;;4991220;28;20076;-81
2023/08/29 10:52:37;;;;;;;0.90;0.25;;;19.00;99.90;;;;;;4987310;28;20030;-81
2023/08/29 10:55:08;;;;;;;0.52;0.15;;;18.90;99.90;;;;;;4985022;28;20023;-81
2023/08/29 10:57:34;;;;;;;1.27;0.45;;;18.80;99.90;;;;;;4984445;28;20030;-81
2023/08/29 10:59:59;;;;;;;1.92;0.52;;;18.70;99.90;;;;;;4987124;28;20757;-82
2023/08/29 11:02:26;;;;;;;0.22;0.10;;;18.60;99.90;;;;;;4985036;28;20432;-81
2023/08/29 11:05:04;;;;;;;1.35;0.28;;;18.50;99.90;;;;;;4983558;28;20049;-81
2023/08/29 11:07:31;;;;;;;0.60;0.30;;;18.60;99.90;;;;;;4984743;28;20449;-81
2023/08/29 11:10:17;;;;;;;0.77;0.22;;;18.50;99.90;;;;;;4983658;28;20114;-81
2023/08/29 11:13:12;;;;;;;1.35;0.20;;;18.50;99.90;;;;;;4985059;28;20030;-81
2023/08/29 11:15:47;;;;;;;0.28;0.10;;;18.30;99.90;;;;;;4985700;28;20109;-80
2023/08/29 11:18:30;;;;;;;0.65;0.20;;;18.50;99.90;;;;;;4993189;28;20041;-82
2023/08/29 11:20:56;;;;;;;1.13;0.27;;;18.60;99.90;;;;;;4988279;28;20092;-80
2023/08/29 11:23:22;;;;;;;1.85;0.40;;;18.60;99.90;;;;;;4988776;28;20289;-80
2023/08/29 11:25:52;;;;;;;0.30;0.17;;;18.50;99.90;;;;;;4992623;28;20026;-82
2023/08/29 11:28:18;;;;;;;1.48;0.40;;;18.60;99.90;;;;;;4984506;28;20022;-81
2023/08/29 11:30:45;;;;;;;0.75;0.43;;;18.70;99.90;;;;;;4986289;28;20035;-81
2023/08/29 11:33:14;;;;;;;0.50;0.10;;;18.60;99.90;;;;;;4987358;28;20073;-81
2023/08/29 11:35:42;;;;;;;1.35;0.30;;;18.80;99.90;;;;;;4995166;28;20062;-80
2023/08/29 11:38:07;;;;;;;1.98;0.20;;;18.70;99.90;;;;;;4999539;28;20026;-80
2023/08/29 11:40:34;;;;;;;1.65;0.20;;;18.40;99.90;;;;;;4997393;28;20041;-81
2023/08/29 11:43:00;;;;;;;0.30;0.10;;;18.50;99.90;;;;;;4995920;28;20108;-81
2023/08/29 11:45:29;;;;;;;1.75;0.15;;;18.80;99.90;;;;;;4998425;28;20038;-81
2023/08/29 11:47:56;;;;;;;1.98;0.30;;;18.60;99.90;;;;;;4988131;28;20023;-81
2023/08/29 11:50:22;;;;;;;1.45;0.10;;;18.80;99.90;;;;;;4986345;28;20088;-80
2023/08/29 11:52:47;;;;;;;0.75;0.15;;;19.00;99.90;;;;;;4995093;28;20080;-81
2023/08/29 11:55:16;;;;;;;2.22;0.50;;;19.10;99.90;;;;;;4991133;28;20034;-80
2023/08/29 11:57:45;;;;;;;0.85;0.15;;;19.10;99.90;;;;;;4990348;28;20128;-81
2023/08/29 12:00:12;;;;;;;1.30;0.32;;;19.20;99.90;;;;;;4987659;28;20145;-80
2023/08/29 12:02:38;;;;;;;1.85;0.20;;;19.00;99.90;;;;;;4995299;28;20485;-80
2023/08/29 12:05:10;;;;;;;0.40;0.10;;;19.10;99.90;;;;;;4993126;28;20129;-80
2023/08/29 12:07:36;;;;;;;0.60;0.20;;;19.10;99.90;;;;;;4987694;28;20073;-80
2023/08/29 12:10:16;;;;;;;2.45;0.22;;;19.10;99.90;;;;;;4995569;28;20140;-81
2023/08/29 12:12:41;;;;;;;1.20;0.32;;;19.20;99.90;;;;;;4989531;28;20038;-80
2023/08/29 12:15:14;;;;;;;0.30;0.10;;;19.10;99.90;;;;;;4991106;28;20042;-80
2023/08/29 12:17:40;;;;;;;1.30;0.20;;;19.40;99.90;;;;;;4992818;28;20026;-81
2023/08/29 12:20:12;;;;;;;0.35;0.10;;;19.20;99.90;;;;;;4996381;28;20506;-80
2023/08/29 12:22:39;;;;;;;0.22;0.05;;;18.90;99.90;;;;;;4986426;28;20050;-80
2023/08/29 12:25:09;;;;;;;1.33;0.10;;;18.80;99.90;;;;;;4986647;28;20026;-81
2023/08/29 12:27:35;;;;;;;0.65;0.17;;;18.90;99.90;;;;;;4996538;28;20468;-80
2023/08/29 12:30:01;;;;;;;2.55;0.22;;;19.00;99.90;;;;;;4993652;28;20037;-80
2023/08/29 12:32:27;;;;;;;0.38;0.10;;;19.20;99.90;;;;;;4992437;28;20045;-81
2023/08/29 12:34:56;;;;;;;0.47;0.20;;;19.40;99.90;;;;;;4993428;28;20050;-80
2023/08/29 12:37:23;;;;;;;1.30;0.32;;;19.30;99.90;;;;;;4994330;28;20113;-80
2023/08/29 12:39:49;;;;;;;1.15;0.10;;;19.50;99.90;;;;;;4990874;28;20040;-80
2023/08/29 12:42:15;;;;;;;1.08;0.30;;;19.40;99.90;;;;;;5000854;28;20037;-82
2023/08/29 12:44:41;;;;;;;2.40;0.20;;;19.20;99.90;;;;;;4994257;28;20652;-81
2023/08/29 12:47:07;;;;;;;0.30;0.17;;;19.10;99.90;;;;;;4991928;28;20082;-82
2023/08/29 12:49:33;;;;;;;0.52;0.10;;;19.10;99.90;;;;;;4990950;28;20081;-82